Time,TemperatureF,DewpointF,PressureIn,WindDirection,WindDirectionDegrees,WindSpeedMPH,WindSpeedGustMPH,Humidity,HourlyPrecipIn,Conditions,Clouds,dailyrainin,SoftwareType,DateUTC
2013-04-01 00:00:00,45.0,32.8,29.70,NW,315,10.0,13.0,62,0.00,,FEW047,0.00,VWS V14.00,2013-04-01 04:00:00,
2013-04-01 00:05:00,44.3,32.1,29.70,NW,325,9.0,12.0,62,0.00,,FEW047,0.00,VWS V14.00,2013-04-01 04:05:00,
2013-04-01 00:10:00,43.8,32.0,29.70,NW,314,7.0,18.0,63,0.00,,FEW047,0.00,VWS V14.00,2013-04-01 04:10:00,
2013-04-01 00:12:00,43.7,32.0,29.70,NW,310,5.0,18.0,63,0.00,,FEW047,0.00,VWS V14.00,2013-04-01 04:12:00,
2013-04-01 00:17:00,43.3,32.0,29.70,NW,314,4.0,18.0,64,0.00,,FEW047,0.00,VWS V14.00,2013-04-01 04:17:00,
2013-04-01 00:22:00,42.8,31.5,29.70,NW,311,1.0,10.0,64,0.00,,FEW047,0.00,VWS V14.00,2013-04-01 04:22:00,
2013-04-01 00:27:00,42.5,31.6,29.70,NW,308,2.0,12.0,65,0.00,,FEW047,0.00,VWS V14.00,2013-04-01 04:27:00,
2013-04-01 00:32:00,42.3,31.8,29.70,NW,309,4.0,11.0,66,0.00,,FEW047,0.00,VWS V14.00,2013-04-01 04:32:00,
2013-04-01 00:37:00,42.1,32.0,29.71,NW,307,8.0,11.0,67,0.00,,FEW047,0.00,VWS V14.00,2013-04-01 04:37:00,
2013-04-01 00:42:00,41.8,32.0,29.72,NW,313,12.0,15.0,68,0.00,,FEW047,0.00,VWS V14.00,2013-04-01 04:42:00,
2013-04-01 00:47:00,41.3,31.2,29.71,NW,314,9.0,16.0,67,0.00,,FEW047,0.00,VWS V14.00,2013-04-01 04:47:00,
2013-04-01 00:52:00,40.9,30.4,29.72,NNW,329,3.0,13.0,66,0.00,,FEW047,0.00,VWS V14.00,2013-04-01 04:52:00,
2013-04-01 00:57:00,40.5,29.3,29.72,NNW,337,10.0,19.0,64,0.00,,FEW047,0.00,VWS V14.00,2013-04-01 04:57:00,
2013-04-01 01:02:00,40.2,28.6,29.72,NNW,329,10.0,12.0,63,0.00,,SCT055,0.00,VWS V14.00,2013-04-01 05:02:00,
2013-04-01 01:07:00,39.9,28.3,29.72,NW,316,13.0,17.0,63,0.00,,SCT055,0.00,VWS V14.00,2013-04-01 05:07:00,
2013-04-01 01:12:00,39.7,28.1,29.72,NW,309,4.0,13.0,63,0.00,,SCT055,0.00,VWS V14.00,2013-04-01 05:12:00,
2013-04-01 01:17:00,39.5,28.4,29.72,WNW,288,5.0,16.0,64,0.00,,SCT055,0.00,VWS V14.00,2013-04-01 05:17:00,
2013-04-01 01:22:00,39.3,28.2,29.72,NW,317,7.0,15.0,64,0.00,,SCT055,0.00,VWS V14.00,2013-04-01 05:22:00,
2013-04-01 01:27:00,39.1,28.3,29.73,NW,306,6.0,15.0,65,0.00,,SCT055,0.00,VWS V14.00,2013-04-01 05:27:00,
2013-04-01 01:32:00,38.8,28.4,29.73,NW,315,5.0,15.0,66,0.00,,SCT055,0.00,VWS V14.00,2013-04-01 05:32:00,
2013-04-01 01:37:00,38.5,28.1,29.72,NW,310,4.0,15.0,66,0.00,,SCT055,0.00,VWS V14.00,2013-04-01 05:37:00,
2013-04-01 01:42:00,38.3,28.3,29.72,NW,321,7.0,9.0,67,0.00,,SCT055,0.00,VWS V14.00,2013-04-01 05:42:00,
2013-04-01 01:47:00,38.3,28.0,29.72,WNW,282,2.0,16.0,66,0.00,,SCT055,0.00,VWS V14.00,2013-04-01 05:47:00,
2013-04-01 01:52:00,38.2,27.9,29.73,WNW,298,0.0,12.0,66,0.00,,SCT055,0.00,VWS V14.00,2013-04-01 05:52:00,
2013-04-01 01:57:00,38.0,27.7,29.73,NW,319,5.0,12.0,66,0.00,,SCT055,0.00,VWS V14.00,2013-04-01 05:57:00,
2013-04-01 02:02:00,37.8,27.5,29.73,NW,319,9.0,9.0,66,0.00,,FEW038,0.00,VWS V14.00,2013-04-01 06:02:00,
2013-04-01 02:07:00,37.7,27.4,29.74,NW,315,5.0,9.0,66,0.00,,FEW038,0.00,VWS V14.00,2013-04-01 06:07:00,
2013-04-01 02:12:00,37.4,27.5,29.73,NW,311,2.0,5.0,67,0.00,,FEW038,0.00,VWS V14.00,2013-04-01 06:12:00,
2013-04-01 02:17:00,37.1,27.2,29.74,NW,311,1.0,5.0,67,0.00,,FEW038,0.00,VWS V14.00,2013-04-01 06:17:00,
2013-04-01 02:22:00,36.9,27.3,29.74,WNW,296,2.0,9.0,68,0.00,,FEW038,0.00,VWS V14.00,2013-04-01 06:22:00,
2013-04-01 02:27:00,36.8,27.6,29.74,NW,310,0.0,9.0,69,0.00,,FEW038,0.00,VWS V14.00,2013-04-01 06:27:00,
2013-04-01 02:32:00,36.7,27.5,29.74,NW,311,0.0,7.0,69,0.00,,FEW038,0.00,VWS V14.00,2013-04-01 06:32:00,
2013-04-01 02:37:00,36.6,27.0,29.74,NW,310,0.0,7.0,68,0.00,,FEW038,0.00,VWS V14.00,2013-04-01 06:37:00,
2013-04-01 02:42:00,36.6,27.0,29.75,West,271,0.0,10.0,68,0.00,,FEW038,0.00,VWS V14.00,2013-04-01 06:42:00,
2013-04-01 02:47:00,36.6,27.4,29.75,WNW,288,5.0,12.0,69,0.00,,FEW038,0.00,VWS V14.00,2013-04-01 06:47:00,
2013-04-01 02:52:00,36.5,27.3,29.75,West,275,4.0,5.0,69,0.00,,FEW038,0.00,VWS V14.00,2013-04-01 06:52:00,
2013-04-01 02:57:00,36.1,27.3,29.75,WNW,300,5.0,10.0,70,0.00,,FEW038,0.00,VWS V14.00,2013-04-01 06:57:00,
2013-04-01 03:02:00,35.7,26.9,29.75,WNW,299,2.0,7.0,70,0.00,,CLR,0.00,VWS V14.00,2013-04-01 07:02:00,
2013-04-01 03:07:00,35.7,27.2,29.76,WNW,286,0.0,8.0,71,0.00,,CLR,0.00,VWS V14.00,2013-04-01 07:07:00,
2013-04-01 03:12:00,35.6,27.1,29.76,WNW,302,2.0,7.0,71,0.00,,CLR,0.00,VWS V14.00,2013-04-01 07:12:00,
2013-04-01 03:18:00,35.7,27.2,29.76,WNW,301,0.0,7.0,71,0.00,,CLR,0.00,VWS V14.00,2013-04-01 07:18:00,
2013-04-01 03:23:00,35.7,27.2,29.76,WNW,290,0.0,6.0,71,0.00,,CLR,0.00,VWS V14.00,2013-04-01 07:23:00,
2013-04-01 03:28:00,35.7,27.2,29.76,West,269,7.0,9.0,71,0.00,,CLR,0.00,VWS V14.00,2013-04-01 07:28:00,
2013-04-01 03:33:00,35.6,27.1,29.76,WNW,292,4.0,9.0,71,0.00,,CLR,0.00,VWS V14.00,2013-04-01 07:33:00,
2013-04-01 03:38:00,35.4,27.0,29.76,West,273,0.0,9.0,71,0.00,,CLR,0.00,VWS V14.00,2013-04-01 07:38:00,
2013-04-01 03:43:00,35.1,27.0,29.77,NW,306,2.0,7.0,72,0.00,,CLR,0.00,VWS V14.00,2013-04-01 07:43:00,
2013-04-01 03:48:00,35.1,27.3,29.77,West,275,5.0,10.0,73,0.00,,CLR,0.00,VWS V14.00,2013-04-01 07:48:00,
2013-04-01 03:53:00,35.2,27.4,29.77,WNW,290,2.0,7.0,73,0.00,,CLR,0.00,VWS V14.00,2013-04-01 07:53:00,
2013-04-01 03:58:00,35.4,27.6,29.77,WNW,302,0.0,7.0,73,0.00,,CLR,0.00,VWS V14.00,2013-04-01 07:58:00,
2013-04-01 04:03:00,35.7,27.9,29.77,WNW,302,4.0,4.0,73,0.00,,FEW050,0.00,VWS V14.00,2013-04-01 08:03:00,
2013-04-01 04:08:00,35.9,28.1,29.78,WNW,300,2.0,7.0,73,0.00,,FEW050,0.00,VWS V14.00,2013-04-01 08:08:00,
2013-04-01 04:13:00,36.0,28.2,29.78,NW,326,7.0,8.0,73,0.00,,FEW050,0.00,VWS V14.00,2013-04-01 08:13:00,
2013-04-01 04:17:00,35.4,28.3,29.79,NNW,344,3.0,17.0,75,0.00,,FEW050,0.00,VWS V14.00,2013-04-01 08:17:00,
2013-04-01 04:22:00,34.3,28.2,29.80,NW,323,7.0,17.0,78,0.00,,FEW050,0.00,VWS V14.00,2013-04-01 08:22:00,
2013-04-01 04:27:00,33.4,27.6,29.80,North,360,3.0,17.0,79,0.00,,FEW050,0.00,VWS V14.00,2013-04-01 08:27:00,
2013-04-01 04:32:00,33.1,27.3,29.80,NW,318,5.0,19.0,79,0.00,,FEW050,0.00,VWS V14.00,2013-04-01 08:32:00,
2013-04-01 04:37:00,33.1,26.7,29.81,NW,319,4.0,19.0,77,0.00,,FEW050,0.00,VWS V14.00,2013-04-01 08:37:00,
2013-04-01 04:42:00,33.1,26.4,29.81,NW,315,5.0,9.0,76,0.00,,FEW050,0.00,VWS V14.00,2013-04-01 08:42:00,
2013-04-01 04:47:00,33.1,26.0,29.81,NW,309,5.0,9.0,75,0.00,,FEW050,0.00,VWS V14.00,2013-04-01 08:47:00,
2013-04-01 04:52:00,33.1,25.7,29.81,NNW,329,6.0,9.0,74,0.00,,FEW050,0.00,VWS V14.00,2013-04-01 08:52:00,
2013-04-01 04:57:00,33.1,25.4,29.81,NNW,327,2.0,11.0,73,0.00,,FEW050,0.00,VWS V14.00,2013-04-01 08:57:00,
2013-04-01 05:02:00,32.9,24.9,29.82,NNW,343,7.0,13.0,72,0.00,,OVC032,0.00,VWS V14.00,2013-04-01 09:02:00,
2013-04-01 05:07:00,32.6,24.2,29.82,NNW,335,4.0,13.0,71,0.00,,OVC032,0.00,VWS V14.00,2013-04-01 09:07:00,
2013-04-01 05:12:00,32.3,24.0,29.83,NNW,327,3.0,10.0,71,0.00,,OVC032,0.00,VWS V14.00,2013-04-01 09:12:00,
2013-04-01 05:17:00,32.0,23.7,29.83,NW,325,6.0,10.0,71,0.00,,OVC032,0.00,VWS V14.00,2013-04-01 09:17:00,
2013-04-01 05:22:00,31.8,23.8,29.84,NW,313,6.0,9.0,72,0.00,,OVC032,0.00,VWS V14.00,2013-04-01 09:22:00,
2013-04-01 05:27:00,31.5,23.5,29.84,NW,315,6.0,9.0,72,0.00,,OVC032,0.00,VWS V14.00,2013-04-01 09:27:00,
2013-04-01 05:32:00,31.3,23.7,29.84,NW,321,2.0,6.0,73,0.00,,OVC032,0.00,VWS V14.00,2013-04-01 09:32:00,
2013-04-01 05:37:00,31.1,23.5,29.84,NW,314,3.0,10.0,73,0.00,,OVC032,0.00,VWS V14.00,2013-04-01 09:37:00,
2013-04-01 05:42:00,30.9,23.3,29.85,NW,322,2.0,8.0,73,0.00,,OVC032,0.00,VWS V14.00,2013-04-01 09:42:00,
2013-04-01 05:47:00,30.8,23.5,29.85,NW,323,4.0,8.0,74,0.00,,OVC032,0.00,VWS V14.00,2013-04-01 09:47:00,
2013-04-01 05:52:00,30.7,23.4,29.85,NNW,327,2.0,10.0,74,0.00,,OVC032,0.00,VWS V14.00,2013-04-01 09:52:00,
2013-04-01 05:57:00,30.6,23.3,29.86,NW,319,1.0,10.0,74,0.00,,OVC032,0.00,VWS V14.00,2013-04-01 09:57:00,
2013-04-01 06:02:00,30.5,23.2,29.86,NW,316,4.0,7.0,74,0.00,,SCT065,0.00,VWS V14.00,2013-04-01 10:02:00,
2013-04-01 06:07:00,30.3,23.0,29.86,NNW,327,2.0,7.0,74,0.00,,SCT065,0.00,VWS V14.00,2013-04-01 10:07:00,
2013-04-01 06:12:00,30.1,23.1,29.87,NW,319,5.0,7.0,75,0.00,,SCT065,0.00,VWS V14.00,2013-04-01 10:12:00,
2013-04-01 06:17:00,29.9,23.3,29.87,NW,313,2.0,7.0,76,0.00,,SCT065,0.00,VWS V14.00,2013-04-01 10:17:00,
2013-04-01 06:22:00,29.8,23.2,29.87,NW,323,0.0,7.0,76,0.00,,SCT065,0.00,VWS V14.00,2013-04-01 10:22:00,
2013-04-01 06:27:00,29.7,23.1,29.87,NW,310,3.0,7.0,76,0.00,,SCT065,0.00,VWS V14.00,2013-04-01 10:27:00,
2013-04-01 06:32:00,29.4,22.8,29.87,NW,320,0.0,4.0,76,0.00,,SCT065,0.00,VWS V14.00,2013-04-01 10:32:00,
2013-04-01 06:38:00,29.2,22.6,29.88,NNW,327,0.0,6.0,76,0.00,,SCT065,0.00,VWS V14.00,2013-04-01 10:38:00,
2013-04-01 06:43:00,29.0,22.4,29.88,NW,316,3.0,9.0,76,0.00,,SCT065,0.00,VWS V14.00,2013-04-01 10:43:00,
2013-04-01 06:48:00,28.8,22.2,29.88,NW,315,3.0,9.0,76,0.00,,SCT065,0.00,VWS V14.00,2013-04-01 10:48:00,
2013-04-01 06:53:00,28.7,22.1,29.88,NW,311,7.0,8.0,76,0.00,,SCT065,0.00,VWS V14.00,2013-04-01 10:53:00,
2013-04-01 06:58:00,28.7,21.8,29.89,NW,314,5.0,8.0,75,0.00,,SCT065,0.00,VWS V14.00,2013-04-01 10:58:00,
2013-04-01 07:03:00,28.8,21.6,29.89,NW,317,2.0,8.0,74,0.00,,CLR,0.00,VWS V14.00,2013-04-01 11:03:00,
2013-04-01 07:08:00,28.8,21.2,29.89,NW,318,7.0,8.0,73,0.00,,CLR,0.00,VWS V14.00,2013-04-01 11:08:00,
2013-04-01 07:12:00,28.8,20.9,29.90,NNW,327,3.0,9.0,72,0.00,,CLR,0.00,VWS V14.00,2013-04-01 11:12:00,
2013-04-01 07:17:00,28.7,20.5,29.90,NW,324,5.0,11.0,71,0.00,,CLR,0.00,VWS V14.00,2013-04-01 11:17:00,
2013-04-01 07:22:00,28.7,19.5,29.90,NW,325,5.0,15.0,68,0.00,,CLR,0.00,VWS V14.00,2013-04-01 11:22:00,
2013-04-01 07:27:00,28.6,19.0,29.91,NNW,330,6.0,15.0,67,0.00,,CLR,0.00,VWS V14.00,2013-04-01 11:27:00,
2013-04-01 07:32:00,28.6,18.0,29.91,NW,318,5.0,9.0,64,0.00,,CLR,0.00,VWS V14.00,2013-04-01 11:32:00,
2013-04-01 07:38:00,28.6,17.6,29.92,North,360,4.0,9.0,63,0.00,,CLR,0.00,VWS V14.00,2013-04-01 11:38:00,
2013-04-01 07:43:00,28.5,17.5,29.92,NW,326,2.0,9.0,63,0.00,,CLR,0.00,VWS V14.00,2013-04-01 11:43:00,
2013-04-01 07:47:00,28.5,17.5,29.93,NW,325,3.0,9.0,63,0.00,,CLR,0.00,VWS V14.00,2013-04-01 11:47:00,
2013-04-01 07:52:00,28.5,17.5,29.93,NNW,348,5.0,10.0,63,0.00,,CLR,0.00,VWS V14.00,2013-04-01 11:52:00,
2013-04-01 08:00:00,28.8,17.4,29.93,NNW,337,6.0,6.0,62,0.00,,CLR,0.00,VWS V14.00,2013-04-01 12:00:00,
2013-04-01 08:05:00,29.0,17.2,29.93,NNW,344,5.0,5.0,61,0.00,,CLR,0.00,VWS V14.00,2013-04-01 12:05:00,
2013-04-01 08:10:00,29.1,17.3,29.94,NNW,329,3.0,6.0,61,0.00,,CLR,0.00,VWS V14.00,2013-04-01 12:10:00,
2013-04-01 08:15:00,29.3,17.5,29.94,North,355,2.0,9.0,61,0.00,,CLR,0.00,VWS V14.00,2013-04-01 12:15:00,
2013-04-01 08:20:00,29.4,17.6,29.94,NW,320,0.0,4.0,61,0.00,,CLR,0.00,VWS V14.00,2013-04-01 12:20:00,
2013-04-01 08:25:00,29.6,17.4,29.94,NNW,346,0.0,13.0,60,0.00,,CLR,0.00,VWS V14.00,2013-04-01 12:25:00,
2013-04-01 08:30:00,29.8,17.2,29.94,NNW,331,7.0,8.0,59,0.00,,CLR,0.00,VWS V14.00,2013-04-01 12:30:00,
2013-04-01 08:35:00,30.1,17.1,29.94,NW,326,4.0,13.0,58,0.00,,CLR,0.00,VWS V14.00,2013-04-01 12:35:00,
2013-04-01 08:40:00,30.4,17.4,29.95,NW,314,7.0,10.0,58,0.00,,CLR,0.00,VWS V14.00,2013-04-01 12:40:00,
2013-04-01 08:45:00,30.6,16.8,29.95,North,355,4.0,11.0,56,0.00,,CLR,0.00,VWS V14.00,2013-04-01 12:45:00,
2013-04-01 08:50:00,30.8,17.8,29.95,NNW,343,2.0,8.0,58,0.00,,CLR,0.00,VWS V14.00,2013-04-01 12:50:00,
2013-04-01 08:55:00,31.0,17.6,29.95,NW,317,3.0,13.0,57,0.00,,CLR,0.00,VWS V14.00,2013-04-01 12:55:00,
2013-04-01 09:00:00,31.2,17.3,29.96,NW,317,3.0,5.0,56,0.00,,CLR,0.00,VWS V14.00,2013-04-01 13:00:00,
2013-04-01 09:05:00,31.4,17.5,29.96,NNW,340,4.0,14.0,56,0.00,,CLR,0.00,VWS V14.00,2013-04-01 13:05:00,
2013-04-01 09:10:00,31.4,17.1,29.96,NW,319,7.0,12.0,55,0.00,,CLR,0.00,VWS V14.00,2013-04-01 13:10:00,
2013-04-01 09:15:00,31.5,17.6,29.96,NW,323,11.0,13.0,56,0.00,,CLR,0.00,VWS V14.00,2013-04-01 13:15:00,
2013-04-01 09:20:00,31.7,17.8,29.97,NNW,336,5.0,9.0,56,0.00,,CLR,0.00,VWS V14.00,2013-04-01 13:20:00,
2013-04-01 09:25:00,32.1,18.2,29.97,NNW,329,10.0,16.0,56,0.00,,CLR,0.00,VWS V14.00,2013-04-01 13:25:00,
2013-04-01 09:30:00,31.9,17.6,29.97,NW,313,5.0,14.0,55,0.00,,CLR,0.00,VWS V14.00,2013-04-01 13:30:00,
2013-04-01 09:35:00,31.7,17.8,29.97,NNW,338,1.0,16.0,56,0.00,,CLR,0.00,VWS V14.00,2013-04-01 13:35:00,
2013-04-01 09:40:00,32.5,19.0,29.97,NNW,329,10.0,10.0,57,0.00,,CLR,0.00,VWS V14.00,2013-04-01 13:40:00,
2013-04-01 09:45:00,33.1,18.3,29.97,NW,317,9.0,12.0,54,0.00,,CLR,0.00,VWS V14.00,2013-04-01 13:45:00,
2013-04-01 09:50:00,32.9,17.2,29.97,WNW,291,7.0,11.0,52,0.00,,CLR,0.00,VWS V14.00,2013-04-01 13:50:00,
2013-04-01 09:55:00,32.7,16.1,29.97,NW,313,9.0,18.0,50,0.00,,CLR,0.00,VWS V14.00,2013-04-01 13:55:00,
2013-04-01 10:00:00,32.6,16.5,29.97,WNW,298,17.0,18.0,51,0.00,,BKN045,0.00,VWS V14.00,2013-04-01 14:00:00,
2013-04-01 10:05:00,32.3,15.3,29.97,WNW,291,13.0,19.0,49,0.00,,BKN045,0.00,VWS V14.00,2013-04-01 14:05:00,
2013-04-01 10:10:00,32.9,16.3,29.98,NW,317,6.0,12.0,50,0.00,,BKN045,0.00,VWS V14.00,2013-04-01 14:10:00,
2013-04-01 10:15:00,33.5,16.4,29.98,NNW,330,4.0,17.0,49,0.00,,BKN045,0.00,VWS V14.00,2013-04-01 14:15:00,
2013-04-01 10:20:00,33.8,16.2,29.97,NNW,327,6.0,13.0,48,0.00,,BKN045,0.00,VWS V14.00,2013-04-01 14:20:00,
2013-04-01 10:25:00,34.0,15.4,29.97,NW,324,17.0,19.0,46,0.00,,BKN045,0.00,VWS V14.00,2013-04-01 14:25:00,
2013-04-01 10:30:00,33.8,16.2,29.98,NW,319,9.0,14.0,48,0.00,,BKN045,0.00,VWS V14.00,2013-04-01 14:30:00,
2013-04-01 10:35:00,33.8,15.2,29.98,NW,320,10.0,20.0,46,0.00,,BKN045,0.00,VWS V14.00,2013-04-01 14:35:00,
2013-04-01 10:40:00,34.1,16.5,29.98,NW,315,11.0,11.0,48,0.00,,BKN045,0.00,VWS V14.00,2013-04-01 14:40:00,
2013-04-01 10:45:00,34.0,15.4,29.98,NW,313,17.0,22.0,46,0.00,,BKN045,0.00,VWS V14.00,2013-04-01 14:45:00,
2013-04-01 10:50:00,34.4,16.8,29.99,NNW,346,9.0,10.0,48,0.00,,BKN045,0.00,VWS V14.00,2013-04-01 14:50:00,
2013-04-01 10:55:00,34.5,15.4,29.98,North,355,5.0,16.0,45,0.00,,BKN045,0.00,VWS V14.00,2013-04-01 14:55:00,
2013-04-01 11:00:00,34.6,16.5,29.99,NNW,336,3.0,12.0,47,0.00,,BKN046,0.00,VWS V14.00,2013-04-01 15:00:00,
2013-04-01 11:05:00,34.7,15.6,29.99,NW,326,10.0,15.0,45,0.00,,BKN046,0.00,VWS V14.00,2013-04-01 15:05:00,
2013-04-01 11:10:00,34.6,16.5,29.99,NNW,331,7.0,14.0,47,0.00,,BKN046,0.00,VWS V14.00,2013-04-01 15:10:00,
2013-04-01 11:15:00,35.2,16.0,29.99,NW,315,8.0,14.0,45,0.00,,BKN046,0.00,VWS V14.00,2013-04-01 15:15:00,
2013-04-01 11:20:00,34.4,15.3,29.99,NW,313,9.0,18.0,45,0.00,,BKN046,0.00,VWS V14.00,2013-04-01 15:20:00,
2013-04-01 11:25:00,35.0,16.8,29.99,NNW,330,4.0,18.0,47,0.00,,BKN046,0.00,VWS V14.00,2013-04-01 15:25:00,
2013-04-01 11:30:00,34.8,15.6,30.00,NNW,340,13.0,13.0,45,0.00,,BKN046,0.00,VWS V14.00,2013-04-01 15:30:00,
2013-04-01 11:35:00,34.6,15.5,30.00,NW,314,11.0,19.0,45,0.00,,BKN046,0.00,VWS V14.00,2013-04-01 15:35:00,
2013-04-01 11:40:00,34.6,16.5,30.00,NW,319,4.0,12.0,47,0.00,,BKN046,0.00,VWS V14.00,2013-04-01 15:40:00,
2013-04-01 11:45:00,35.2,15.0,30.00,NW,313,10.0,15.0,43,0.00,,BKN046,0.00,VWS V14.00,2013-04-01 15:45:00,
2013-04-01 11:50:00,35.9,15.6,30.00,NW,317,3.0,3.0,43,0.00,,BKN046,0.00,VWS V14.00,2013-04-01 15:50:00,
2013-04-01 11:55:00,35.8,15.0,30.00,WNW,302,7.0,11.0,42,0.00,,BKN046,0.00,VWS V14.00,2013-04-01 15:55:00,
2013-04-01 12:00:00,35.3,15.6,30.00,NW,313,0.0,3.0,44,0.00,,BKN048,0.00,VWS V14.00,2013-04-01 16:00:00,
2013-04-01 12:05:00,35.6,15.3,30.00,NW,313,9.0,16.0,43,0.00,,BKN048,0.00,VWS V14.00,2013-04-01 16:05:00,
2013-04-01 12:10:00,36.3,15.4,30.00,WSW,245,3.0,10.0,42,0.00,,BKN048,0.00,VWS V14.00,2013-04-01 16:10:00,
2013-04-01 12:15:00,36.9,16.0,30.00,NW,305,6.0,16.0,42,0.00,,BKN048,0.00,VWS V14.00,2013-04-01 16:15:00,
2013-04-01 12:20:00,37.2,16.2,30.00,NW,309,6.0,8.0,42,0.00,,BKN048,0.00,VWS V14.00,2013-04-01 16:20:00,
2013-04-01 12:25:00,37.3,15.8,30.00,NNW,341,3.0,18.0,41,0.00,,BKN048,0.00,VWS V14.00,2013-04-01 16:25:00,
2013-04-01 12:30:00,37.7,16.7,30.00,WNW,295,13.0,13.0,42,0.00,,BKN048,0.00,VWS V14.00,2013-04-01 16:30:00,
2013-04-01 12:35:00,37.9,16.3,30.00,WNW,285,3.0,22.0,41,0.00,,BKN048,0.00,VWS V14.00,2013-04-01 16:35:00,
2013-04-01 12:40:00,37.9,15.8,30.00,WNW,290,3.0,8.0,40,0.00,,BKN048,0.00,VWS V14.00,2013-04-01 16:40:00,
2013-04-01 12:45:00,37.5,16.0,30.00,WNW,297,10.0,13.0,41,0.00,,BKN048,0.00,VWS V14.00,2013-04-01 16:45:00,
2013-04-01 12:50:00,37.3,17.4,30.00,WNW,288,0.0,6.0,44,0.00,,BKN048,0.00,VWS V14.00,2013-04-01 16:50:00,
2013-04-01 12:55:00,38.2,16.6,30.00,NW,325,13.0,17.0,41,0.00,,BKN048,0.00,VWS V14.00,2013-04-01 16:55:00,
2013-04-01 13:00:00,37.9,16.3,30.00,NW,315,4.0,12.0,41,0.00,,BKN055,0.00,VWS V14.00,2013-04-01 17:00:00,
2013-04-01 13:05:00,37.7,15.6,30.00,WNW,302,6.0,17.0,40,0.00,,BKN055,0.00,VWS V14.00,2013-04-01 17:05:00,
2013-04-01 13:10:00,37.4,15.3,30.00,WNW,287,14.0,17.0,40,0.00,,BKN055,0.00,VWS V14.00,2013-04-01 17:10:00,
2013-04-01 13:15:00,37.7,15.6,30.00,WNW,291,7.0,17.0,40,0.00,,BKN055,0.00,VWS V14.00,2013-04-01 17:15:00,
2013-04-01 13:20:00,38.6,17.0,30.00,WNW,286,4.0,15.0,41,0.00,,BKN055,0.00,VWS V14.00,2013-04-01 17:20:00,
2013-04-01 13:25:00,38.9,15.5,30.00,NW,319,9.0,17.0,38,0.00,,BKN055,0.00,VWS V14.00,2013-04-01 17:25:00,
2013-04-01 13:30:00,38.1,15.4,30.00,NW,311,7.0,16.0,39,0.00,,BKN055,0.00,VWS V14.00,2013-04-01 17:30:00,
2013-04-01 13:35:00,38.7,15.9,30.00,West,280,10.0,21.0,39,0.00,,BKN055,0.00,VWS V14.00,2013-04-01 17:35:00,
2013-04-01 13:40:00,38.6,14.0,29.99,NW,321,4.0,9.0,36,0.00,,BKN055,0.00,VWS V14.00,2013-04-01 17:40:00,
2013-04-01 13:45:00,38.2,14.8,30.00,NW,308,7.0,14.0,38,0.00,,BKN055,0.00,VWS V14.00,2013-04-01 17:45:00,
2013-04-01 13:50:00,39.1,15.0,30.00,WSW,250,6.0,14.0,37,0.00,,BKN055,0.00,VWS V14.00,2013-04-01 17:50:00,
2013-04-01 13:55:00,39.4,15.9,29.99,West,272,9.0,19.0,38,0.00,,BKN055,0.00,VWS V14.00,2013-04-01 17:55:00,
2013-04-01 14:00:00,40.2,16.6,29.99,WNW,290,7.0,14.0,38,0.00,,BKN055,0.00,VWS V14.00,2013-04-01 18:00:00,
2013-04-01 14:05:00,40.0,16.5,30.00,WNW,296,5.0,19.0,38,0.00,,BKN060,0.00,VWS V14.00,2013-04-01 18:05:00,
2013-04-01 14:10:00,40.7,15.8,30.00,NNW,330,7.0,9.0,36,0.00,,BKN060,0.00,VWS V14.00,2013-04-01 18:10:00,
2013-04-01 14:15:00,40.1,13.3,30.00,NNW,328,9.0,18.0,33,0.00,,BKN060,0.00,VWS V14.00,2013-04-01 18:15:00,
2013-04-01 14:20:00,39.8,14.4,30.00,NNW,348,6.0,22.0,35,0.00,,BKN060,0.00,VWS V14.00,2013-04-01 18:20:00,
2013-04-01 14:25:00,39.5,14.8,30.00,WNW,300,9.0,22.0,36,0.00,,BKN060,0.00,VWS V14.00,2013-04-01 18:25:00,
2013-04-01 14:30:00,39.2,14.5,30.00,West,276,5.0,13.0,36,0.00,,BKN060,0.00,VWS V14.00,2013-04-01 18:30:00,
2013-04-01 14:35:00,39.4,14.0,30.00,WNW,295,6.0,14.0,35,0.00,,BKN060,0.00,VWS V14.00,2013-04-01 18:35:00,
2013-04-01 14:40:00,39.7,14.3,30.00,NW,321,12.0,12.0,35,0.00,,BKN060,0.00,VWS V14.00,2013-04-01 18:40:00,
2013-04-01 14:45:00,38.8,15.4,30.00,NW,325,5.0,13.0,38,0.00,,BKN060,0.00,VWS V14.00,2013-04-01 18:45:00,
2013-04-01 14:50:00,40.1,15.9,30.00,NW,314,6.0,8.0,37,0.00,,BKN060,0.00,VWS V14.00,2013-04-01 18:50:00,
2013-04-01 14:55:00,40.7,15.8,30.00,NW,304,8.0,16.0,36,0.00,,BKN060,0.00,VWS V14.00,2013-04-01 18:55:00,
2013-04-01 15:00:00,41.2,16.3,29.99,WNW,282,6.0,7.0,36,0.00,,BKN060,0.00,VWS V14.00,2013-04-01 19:00:00,
2013-04-01 15:05:00,41.7,15.4,29.99,WNW,301,1.0,15.0,34,0.00,,SCT065,0.00,VWS V14.00,2013-04-01 19:05:00,
2013-04-01 15:10:00,40.0,13.2,29.99,WNW,296,5.0,11.0,33,0.00,,SCT065,0.00,VWS V14.00,2013-04-01 19:10:00,
2013-04-01 15:15:00,39.5,14.1,29.99,NNW,329,9.0,22.0,35,0.00,,SCT065,0.00,VWS V14.00,2013-04-01 19:15:00,
2013-04-01 15:20:00,38.6,13.3,29.99,WNW,286,5.0,16.0,35,0.00,,SCT065,0.00,VWS V14.00,2013-04-01 19:20:00,
2013-04-01 15:25:00,38.5,14.5,29.99,NNW,338,6.0,16.0,37,0.00,,SCT065,0.00,VWS V14.00,2013-04-01 19:25:00,
2013-04-01 15:30:00,38.8,16.0,29.99,WNW,298,5.0,6.0,39,0.00,,SCT065,0.00,VWS V14.00,2013-04-01 19:30:00,
2013-04-01 15:35:00,39.7,14.9,30.00,West,267,5.0,19.0,36,0.00,,SCT065,0.00,VWS V14.00,2013-04-01 19:35:00,
2013-04-01 15:40:00,39.6,14.9,30.00,WNW,291,4.0,12.0,36,0.00,,SCT065,0.00,VWS V14.00,2013-04-01 19:40:00,
2013-04-01 15:45:00,39.2,15.1,30.00,NW,325,9.0,19.0,37,0.00,,SCT065,0.00,VWS V14.00,2013-04-01 19:45:00,
2013-04-01 15:50:00,38.4,14.4,30.00,West,280,7.0,10.0,37,0.00,,SCT065,0.00,VWS V14.00,2013-04-01 19:50:00,
2013-04-01 15:55:00,38.0,14.1,29.99,NW,323,7.0,18.0,37,0.00,,SCT065,0.00,VWS V14.00,2013-04-01 19:55:00,
2013-04-01 16:00:00,38.1,14.1,30.00,NW,305,10.0,11.0,37,0.00,,BKN070,0.00,VWS V14.00,2013-04-01 20:00:00,
2013-04-01 16:05:00,37.9,13.4,29.99,NW,313,6.0,18.0,36,0.00,,BKN070,0.00,VWS V14.00,2013-04-01 20:05:00,
2013-04-01 16:10:00,38.4,14.4,30.00,West,269,17.0,18.0,37,0.00,,BKN070,0.00,VWS V14.00,2013-04-01 20:10:00,
2013-04-01 16:15:00,39.0,14.3,30.00,NW,318,13.0,18.0,36,0.00,,BKN070,0.00,VWS V14.00,2013-04-01 20:15:00,
2013-04-01 16:20:00,38.3,14.3,30.00,WNW,283,3.0,11.0,37,0.00,,BKN070,0.00,VWS V14.00,2013-04-01 20:20:00,
2013-04-01 16:25:00,38.2,14.8,30.00,WSW,246,14.0,18.0,38,0.00,,BKN070,0.00,VWS V14.00,2013-04-01 20:25:00,
2013-04-01 16:30:00,38.7,14.7,30.00,WNW,299,5.0,20.0,37,0.00,,BKN070,0.00,VWS V14.00,2013-04-01 20:30:00,
2013-04-01 16:35:00,38.8,14.1,30.00,West,272,5.0,20.0,36,0.00,,BKN070,0.00,VWS V14.00,2013-04-01 20:35:00,
2013-04-01 16:40:00,38.9,13.6,30.00,West,279,4.0,12.0,35,0.00,,BKN070,0.00,VWS V14.00,2013-04-01 20:40:00,
2013-04-01 16:45:00,38.4,13.1,30.01,NW,311,0.0,14.0,35,0.00,,BKN070,0.00,VWS V14.00,2013-04-01 20:45:00,
2013-04-01 16:50:00,38.2,13.0,30.00,NW,315,7.0,21.0,35,0.00,,BKN070,0.00,VWS V14.00,2013-04-01 20:50:00,
2013-04-01 16:55:00,38.6,13.3,30.00,NW,314,5.0,21.0,35,0.00,,BKN070,0.00,VWS V14.00,2013-04-01 20:55:00,
2013-04-01 17:00:00,38.6,13.3,30.00,NW,314,4.0,12.0,35,0.00,,BKN070,0.00,VWS V14.00,2013-04-01 21:00:00,
2013-04-01 17:05:00,39.1,15.0,30.01,NW,309,0.0,12.0,37,0.00,,BKN070,0.00,VWS V14.00,2013-04-01 21:05:00,
2013-04-01 17:10:00,39.9,14.5,30.01,West,269,3.0,11.0,35,0.00,,BKN070,0.00,VWS V14.00,2013-04-01 21:10:00,
2013-04-01 17:15:00,38.8,12.9,30.01,NNW,328,11.0,18.0,34,0.00,,BKN070,0.00,VWS V14.00,2013-04-01 21:15:00,
2013-04-01 17:20:00,38.2,14.2,30.01,NW,319,4.0,10.0,37,0.00,,BKN070,0.00,VWS V14.00,2013-04-01 21:20:00,
2013-04-01 17:25:00,38.1,14.1,30.01,NW,311,4.0,12.0,37,0.00,,BKN070,0.00,VWS V14.00,2013-04-01 21:25:00,
2013-04-01 17:30:00,38.6,14.0,30.01,NW,321,11.0,18.0,36,0.00,,BKN070,0.00,VWS V14.00,2013-04-01 21:30:00,
2013-04-01 17:35:00,38.8,14.8,30.00,NW,320,10.0,18.0,37,0.00,,BKN070,0.00,VWS V14.00,2013-04-01 21:35:00,
2013-04-01 17:40:00,39.6,14.9,30.01,West,280,7.0,19.0,36,0.00,,BKN070,0.00,VWS V14.00,2013-04-01 21:40:00,
2013-04-01 17:45:00,39.7,13.6,30.01,NNW,344,11.0,19.0,34,0.00,,BKN070,0.00,VWS V14.00,2013-04-01 21:45:00,
2013-04-01 17:50:00,38.2,13.6,30.02,NW,315,12.0,17.0,36,0.00,,BKN070,0.00,VWS V14.00,2013-04-01 21:50:00,
2013-04-01 17:55:00,37.0,13.8,30.02,NW,323,7.0,19.0,38,0.00,,BKN070,0.00,VWS V14.00,2013-04-01 21:55:00,
2013-04-01 18:00:00,37.0,13.2,30.02,NW,310,11.0,17.0,37,0.00,,BKN065,0.00,VWS V14.00,2013-04-01 22:00:00,
2013-04-01 18:05:00,36.8,13.0,30.02,NW,321,4.0,17.0,37,0.00,,BKN065,0.00,VWS V14.00,2013-04-01 22:05:00,
2013-04-01 18:10:00,37.4,14.1,30.03,West,278,3.0,14.0,38,0.00,,BKN065,0.00,VWS V14.00,2013-04-01 22:10:00,
2013-04-01 18:15:00,37.3,14.0,30.03,West,271,10.0,20.0,38,0.00,,BKN065,0.00,VWS V14.00,2013-04-01 22:15:00,
2013-04-01 18:20:00,37.0,14.4,30.03,NW,306,5.0,9.0,39,0.00,,BKN065,0.00,VWS V14.00,2013-04-01 22:20:00,
2013-04-01 18:25:00,36.6,14.6,30.03,West,279,9.0,14.0,40,0.00,,BKN065,0.00,VWS V14.00,2013-04-01 22:25:00,
2013-04-01 18:30:00,36.1,14.1,30.04,NW,316,4.0,12.0,40,0.00,,BKN065,0.00,VWS V14.00,2013-04-01 22:30:00,
2013-04-01 18:35:00,36.0,13.5,30.03,NW,317,7.0,15.0,39,0.00,,BKN065,0.00,VWS V14.00,2013-04-01 22:35:00,
2013-04-01 18:40:00,36.2,13.6,30.04,NW,320,7.0,14.0,39,0.00,,BKN065,0.00,VWS V14.00,2013-04-01 22:40:00,
2013-04-01 18:45:00,36.1,13.6,30.04,NW,317,7.0,16.0,39,0.00,,BKN065,0.00,VWS V14.00,2013-04-01 22:45:00,
2013-04-01 18:50:00,36.0,13.5,30.03,NW,323,4.0,11.0,39,0.00,,BKN065,0.00,VWS V14.00,2013-04-01 22:50:00,
2013-04-01 18:55:00,35.8,13.9,30.04,NW,321,6.0,17.0,40,0.00,,BKN065,0.00,VWS V14.00,2013-04-01 22:55:00,
2013-04-01 19:00:00,35.8,13.3,30.04,NW,316,7.0,11.0,39,0.00,,BKN065,0.00,VWS V14.00,2013-04-01 23:00:00,
2013-04-01 19:05:00,35.7,13.8,30.04,NNW,333,6.0,16.0,40,0.00,,BKN060,0.00,VWS V14.00,2013-04-01 23:05:00,
2013-04-01 19:10:00,35.5,13.6,30.05,NW,319,5.0,8.0,40,0.00,,BKN060,0.00,VWS V14.00,2013-04-01 23:10:00,
2013-04-01 19:15:00,35.1,13.2,30.05,NW,314,10.0,16.0,40,0.00,,BKN060,0.00,VWS V14.00,2013-04-01 23:15:00,
2013-04-01 19:20:00,34.7,13.4,30.05,NW,312,7.0,12.0,41,0.00,,BKN060,0.00,VWS V14.00,2013-04-01 23:20:00,
2013-04-01 19:25:00,34.6,13.9,30.05,NW,317,7.0,13.0,42,0.00,,BKN060,0.00,VWS V14.00,2013-04-01 23:25:00,
2013-04-01 19:30:00,34.4,13.1,30.05,NNW,333,8.0,12.0,41,0.00,,BKN060,0.00,VWS V14.00,2013-04-01 23:30:00,
2013-04-01 19:35:00,33.9,13.2,30.06,NW,304,7.0,15.0,42,0.00,,BKN060,0.00,VWS V14.00,2013-04-01 23:35:00,
2013-04-01 19:40:00,33.6,13.0,30.06,NNW,336,10.0,14.0,42,0.00,,BKN060,0.00,VWS V14.00,2013-04-01 23:40:00,
2013-04-01 19:45:00,33.3,13.2,30.06,NW,304,2.0,14.0,43,0.00,,BKN060,0.00,VWS V14.00,2013-04-01 23:45:00,
2013-04-01 19:50:00,33.0,13.0,30.06,WNW,283,4.0,12.0,43,0.00,,BKN060,0.00,VWS V14.00,2013-04-01 23:50:00,
2013-04-01 19:55:00,32.6,13.1,30.07,NW,306,9.0,14.0,44,0.00,,BKN060,0.00,VWS V14.00,2013-04-01 23:55:00,
2013-04-01 20:00:00,32.4,12.9,30.07,NW,313,10.0,10.0,44,0.00,,CLR,0.00,VWS V14.00,2013-04-02 00:00:00,
2013-04-01 20:05:00,32.1,13.2,30.07,NW,317,1.0,14.0,45,0.00,,CLR,0.00,VWS V14.00,2013-04-02 00:05:00,
2013-04-01 20:10:00,31.9,13.0,30.07,NW,320,6.0,12.0,45,0.00,,CLR,0.00,VWS V14.00,2013-04-02 00:10:00,
2013-04-01 20:15:00,31.6,13.2,30.07,NW,315,10.0,12.0,46,0.00,,CLR,0.00,VWS V14.00,2013-04-02 00:15:00,
2013-04-01 20:20:00,31.5,13.1,30.07,WNW,301,5.0,10.0,46,0.00,,CLR,0.00,VWS V14.00,2013-04-02 00:20:00,
2013-04-01 20:25:00,31.2,13.3,30.07,WNW,298,6.0,10.0,47,0.00,,CLR,0.00,VWS V14.00,2013-04-02 00:25:00,
2013-04-01 20:30:00,30.9,13.5,30.08,NW,317,6.0,7.0,48,0.00,,CLR,0.00,VWS V14.00,2013-04-02 00:30:00,
2013-04-01 20:35:00,30.6,13.7,30.08,WNW,298,4.0,7.0,49,0.00,,CLR,0.00,VWS V14.00,2013-04-02 00:35:00,
2013-04-01 20:40:00,30.3,13.0,30.08,NW,319,3.0,6.0,48,0.00,,CLR,0.00,VWS V14.00,2013-04-02 00:40:00,
2013-04-01 20:45:00,30.0,13.2,30.08,NW,312,1.0,9.0,49,0.00,,CLR,0.00,VWS V14.00,2013-04-02 00:45:00,
2013-04-01 20:50:00,29.7,13.4,30.08,NW,317,1.0,5.0,50,0.00,,CLR,0.00,VWS V14.00,2013-04-02 00:50:00,
2013-04-01 20:55:00,29.6,13.3,30.08,NW,322,2.0,9.0,50,0.00,,CLR,0.00,VWS V14.00,2013-04-02 00:55:00,
2013-04-01 21:00:00,29.4,13.1,30.09,NW,319,2.0,6.0,50,0.00,,CLR,0.00,VWS V14.00,2013-04-02 01:00:00,
2013-04-01 21:05:00,29.3,13.0,30.09,NW,319,6.0,9.0,50,0.00,,CLR,0.00,VWS V14.00,2013-04-02 01:05:00,
2013-04-01 21:10:00,29.3,13.4,30.09,NW,318,4.0,6.0,51,0.00,,CLR,0.00,VWS V14.00,2013-04-02 01:10:00,
2013-04-01 21:15:00,29.2,13.3,30.09,NW,315,9.0,11.0,51,0.00,,CLR,0.00,VWS V14.00,2013-04-02 01:15:00,
2013-04-01 21:20:00,29.2,13.3,30.09,NW,307,9.0,9.0,51,0.00,,CLR,0.00,VWS V14.00,2013-04-02 01:20:00,
2013-04-01 21:25:00,29.0,13.6,30.10,NW,319,4.0,9.0,52,0.00,,CLR,0.00,VWS V14.00,2013-04-02 01:25:00,
2013-04-01 21:30:00,28.8,13.8,30.10,NW,318,5.0,11.0,53,0.00,,CLR,0.00,VWS V14.00,2013-04-02 01:30:00,
2013-04-01 21:35:00,28.6,13.6,30.10,NW,324,4.0,11.0,53,0.00,,CLR,0.00,VWS V14.00,2013-04-02 01:35:00,
2013-04-01 21:40:00,28.4,13.5,30.11,NNW,333,7.0,7.0,53,0.00,,CLR,0.00,VWS V14.00,2013-04-02 01:40:00,
2013-04-01 21:45:00,28.3,13.8,30.11,NW,321,4.0,9.0,54,0.00,,CLR,0.00,VWS V14.00,2013-04-02 01:45:00,
2013-04-01 21:50:00,28.1,13.6,30.11,NW,326,3.0,5.0,54,0.00,,CLR,0.00,VWS V14.00,2013-04-02 01:50:00,
2013-04-01 21:55:00,27.9,13.4,30.11,NNW,329,3.0,9.0,54,0.00,,CLR,0.00,VWS V14.00,2013-04-02 01:55:00,
2013-04-01 22:00:00,27.8,13.3,30.11,NW,325,0.0,6.0,54,0.00,,CLR,0.00,VWS V14.00,2013-04-02 02:00:00,
2013-04-01 22:05:00,27.6,13.6,30.11,NW,325,3.0,6.0,55,0.00,,CLR,0.00,VWS V14.00,2013-04-02 02:05:00,
2013-04-01 22:10:00,27.5,13.5,30.11,NW,324,2.0,4.0,55,0.00,,CLR,0.00,VWS V14.00,2013-04-02 02:10:00,
2013-04-01 22:15:00,27.3,13.3,30.11,NW,324,0.0,5.0,55,0.00,,CLR,0.00,VWS V14.00,2013-04-02 02:15:00,
2013-04-01 22:20:00,27.1,13.1,30.11,NW,322,0.0,5.0,55,0.00,,CLR,0.00,VWS V14.00,2013-04-02 02:20:00,
2013-04-01 22:25:00,27.0,13.0,30.12,NW,321,5.0,5.0,55,0.00,,CLR,0.00,VWS V14.00,2013-04-02 02:25:00,
2013-04-01 22:30:00,26.9,12.9,30.12,NW,307,3.0,6.0,55,0.00,,CLR,0.00,VWS V14.00,2013-04-02 02:30:00,
2013-04-01 22:35:00,26.9,12.9,30.12,NW,321,0.0,6.0,55,0.00,,CLR,0.00,VWS V14.00,2013-04-02 02:35:00,
2013-04-01 22:40:00,26.9,12.9,30.12,NW,321,2.0,3.0,55,0.00,,CLR,0.00,VWS V14.00,2013-04-02 02:40:00,
2013-04-01 22:45:00,26.9,12.9,30.12,NW,313,0.0,6.0,55,0.00,,CLR,0.00,VWS V14.00,2013-04-02 02:45:00,
2013-04-01 22:50:00,26.9,12.9,30.12,NW,321,0.0,2.0,55,0.00,,CLR,0.00,VWS V14.00,2013-04-02 02:50:00,
2013-04-01 22:55:00,26.8,13.2,30.12,NW,321,0.0,4.0,56,0.00,,CLR,0.00,VWS V14.00,2013-04-02 02:55:00,
2013-04-01 23:00:00,26.7,12.7,30.12,NW,321,0.0,0.0,55,0.00,,CLR,0.00,VWS V14.00,2013-04-02 03:00:00,
2013-04-01 23:05:00,26.6,12.6,30.12,NW,321,0.0,4.0,55,0.00,,CLR,0.00,VWS V14.00,2013-04-02 03:05:00,
2013-04-01 23:10:00,26.5,12.9,30.12,NW,321,0.0,3.0,56,0.00,,CLR,0.00,VWS V14.00,2013-04-02 03:10:00,
2013-04-01 23:15:00,26.4,12.8,30.12,NW,321,0.0,3.0,56,0.00,,CLR,0.00,VWS V14.00,2013-04-02 03:15:00,
2013-04-01 23:20:00,26.3,12.8,30.12,NW,321,0.0,0.0,56,0.00,,CLR,0.00,VWS V14.00,2013-04-02 03:20:00,
2013-04-01 23:25:00,26.2,12.7,30.13,NW,321,0.0,0.0,56,0.00,,CLR,0.00,VWS V14.00,2013-04-02 03:25:00,
2013-04-01 23:30:00,25.9,13.2,30.12,NW,321,0.0,0.0,58,0.00,,CLR,0.00,VWS V14.00,2013-04-02 03:30:00,
2013-04-01 23:35:00,25.5,12.8,30.12,NW,321,2.0,2.0,58,0.00,,CLR,0.00,VWS V14.00,2013-04-02 03:35:00,
2013-04-01 23:40:00,25.3,13.0,30.12,NW,321,0.0,0.0,59,0.00,,CLR,0.00,VWS V14.00,2013-04-02 03:40:00,
2013-04-01 23:45:00,25.1,13.2,30.12,NW,321,0.0,1.0,60,0.00,,CLR,0.00,VWS V14.00,2013-04-02 03:45:00,
2013-04-01 23:50:00,24.9,13.0,30.12,NW,321,0.0,1.0,60,0.00,,CLR,0.00,VWS V14.00,2013-04-02 03:50:00,
2013-04-01 23:55:00,24.8,13.3,30.12,NW,321,0.0,2.0,61,0.00,,CLR,0.00,VWS V14.00,2013-04-02 03:55:00,